sensor_id;sensor_type;location;lat;lon;timestamp;temperature;humidity
63317;DHT22;49822;41.468;13.560;2023-11-21T00:02:25;14.70;99.90
63317;DHT22;49822;41.468;13.560;2023-11-21T00:04:52;14.70;99.90
63317;DHT22;49822;41.468;13.560;2023-11-21T00:07:19;14.80;99.90
63317;DHT22;49822;41.468;13.560;2023-11-21T00:09:47;14.70;99.90
63317;DHT22;49822;41.468;13.560;2023-11-21T00:12:13;14.70;99.90
63317;DHT22;49822;41.468;13.560;2023-11-21T00:14:41;14.70;99.90
63317;DHT22;49822;41.468;13.560;2023-11-21T00:17:07;14.70;99.70
63317;DHT22;49822;41.468;13.560;2023-11-21T00:19:33;14.70;99.70
63317;DHT22;49822;41.468;13.560;2023-11-21T00:22:00;14.80;99.70
63317;DHT22;49822;41.468;13.560;2023-11-21T00:24:26;14.80;99.80
63317;DHT22;49822;41.468;13.560;2023-11-21T00:26:52;14.80;99.60
63317;DHT22;49822;41.468;13.560;2023-11-21T00:29:20;14.80;99.80
63317;DHT22;49822;41.468;13.560;2023-11-21T00:31:46;14.80;99.70
63317;DHT22;49822;41.468;13.560;2023-11-21T00:34:12;14.90;99.70
63317;DHT22;49822;41.468;13.560;2023-11-21T00:36:38;15.00;99.60
63317;DHT22;49822;41.468;13.560;2023-11-21T00:39:04;14.90;99.20
63317;DHT22;49822;41.468;13.560;2023-11-21T00:41:32;14.90;99.10
63317;DHT22;49822;41.468;13.560;2023-11-21T00:43:58;14.90;99.20
63317;DHT22;49822;41.468;13.560;2023-11-21T00:46:25;14.80;98.90
63317;DHT22;49822;41.468;13.560;2023-11-21T00:48:54;14.80;99.20
63317;DHT22;49822;41.468;13.560;2023-11-21T00:51:20;14.80;99.20
63317;DHT22;49822;41.468;13.560;2023-11-21T00:53:47;14.80;99.40
63317;DHT22;49822;41.468;13.560;2023-11-21T00:56:14;14.80;99.20
63317;DHT22;49822;41.468;13.560;2023-11-21T00:58:41;14.80;99.10
63317;DHT22;49822;41.468;13.560;2023-11-21T01:01:16;14.80;99.20
63317;DHT22;49822;41.468;13.560;2023-11-21T01:03:42;14.80;99.10
63317;DHT22;49822;41.468;13.560;2023-11-21T01:06:09;14.80;99.20
63317;DHT22;49822;41.468;13.560;2023-11-21T01:08:35;14.80;99.20
63317;DHT22;49822;41.468;13.560;2023-11-21T01:11:02;14.70;99.10
63317;DHT22;49822;41.468;13.560;2023-11-21T01:13:29;14.80;99.10
63317;DHT22;49822;41.468;13.560;2023-11-21T01:15:56;14.80;99.00
63317;DHT22;49822;41.468;13.560;2023-11-21T01:18:23;14.80;99.00
63317;DHT22;49822;41.468;13.560;2023-11-21T01:20:51;14.80;98.70
63317;DHT22;49822;41.468;13.560;2023-11-21T01:23:20;14.80;98.70
63317;DHT22;49822;41.468;13.560;2023-11-21T01:25:46;14.80;98.70
63317;DHT22;49822;41.468;13.560;2023-11-21T01:28:12;14.70;99.00
63317;DHT22;49822;41.468;13.560;2023-11-21T01:30:48;14.80;98.80
63317;DHT22;49822;41.468;13.560;2023-11-21T01:33:17;14.70;98.60
63317;DHT22;49822;41.468;13.560;2023-11-21T01:35:44;14.70;98.90
63317;DHT22;49822;41.468;13.560;2023-11-21T01:38:12;14.70;98.80
63317;DHT22;49822;41.468;13.560;2023-11-21T01:40:38;14.70;98.90
63317;DHT22;49822;41.468;13.560;2023-11-21T01:43:04;14.70;98.90
63317;DHT22;49822;41.468;13.560;2023-11-21T01:45:30;14.70;99.00
63317;DHT22;49822;41.468;13.560;2023-11-21T01:48:00;14.60;99.20
63317;DHT22;49822;41.468;13.560;2023-11-21T01:50:27;14.70;99.00
63317;DHT22;49822;41.468;13.560;2023-11-21T01:52:54;14.60;98.70
63317;DHT22;49822;41.468;13.560;2023-11-21T01:55:21;14.70;98.40
63317;DHT22;49822;41.468;13.560;2023-11-21T01:57:47;14.60;98.50
63317;DHT22;49822;41.468;13.560;2023-11-21T02:00:14;14.60;98.50
63317;DHT22;49822;41.468;13.560;2023-11-21T02:02:48;14.60;98.50
63317;DHT22;49822;41.468;13.560;2023-11-21T02:05:15;14.50;98.60
63317;DHT22;49822;41.468;13.560;2023-11-21T02:07:46;14.50;99.00
63317;DHT22;49822;41.468;13.560;2023-11-21T02:10:16;14.30;99.50
63317;DHT22;49822;41.468;13.560;2023-11-21T02:12:42;14.30;99.90
63317;DHT22;49822;41.468;13.560;2023-11-21T02:15:10;14.30;99.90
63317;DHT22;49822;41.468;13.560;2023-11-21T02:17:44;14.30;99.90
63317;DHT22;49822;41.468;13.560;2023-11-21T02:20:13;14.20;99.90
63317;DHT22;49822;41.468;13.560;2023-11-21T02:22:51;14.10;99.90
63317;DHT22;49822;41.468;13.560;2023-11-21T02:25:28;14.20;99.90
63317;DHT22;49822;41.468;13.560;2023-11-21T02:27:56;14.20;99.90
63317;DHT22;49822;41.468;13.560;2023-11-21T02:30:22;14.20;99.90
63317;DHT22;49822;41.468;13.560;2023-11-21T02:32:52;14.20;99.90
63317;DHT22;49822;41.468;13.560;2023-11-21T02:35:19;14.20;99.90
63317;DHT22;49822;41.468;13.560;2023-11-21T02:37:49;14.20;99.60
63317;DHT22;49822;41.468;13.560;2023-11-21T02:40:15;14.20;99.90
63317;DHT22;49822;41.468;13.560;2023-11-21T02:42:46;14.10;99.20
63317;DHT22;49822;41.468;13.560;2023-11-21T02:45:25;14.10;99.40
63317;DHT22;49822;41.468;13.560;2023-11-21T02:47:51;14.00;99.80
63317;DHT22;49822;41.468;13.560;2023-11-21T02:50:22;14.10;99.90
63317;DHT22;49822;41.468;13.560;2023-11-21T02:52:48;14.10;99.90
63317;DHT22;49822;41.468;13.560;2023-11-21T02:55:14;14.10;99.90
63317;DHT22;49822;41.468;13.560;2023-11-21T02:57:41;14.20;99.90
63317;DHT22;49822;41.468;13.560;2023-11-21T03:00:08;14.10;99.90
63317;DHT22;49822;41.468;13.560;2023-11-21T03:02:35;14.10;99.90
63317;DHT22;49822;41.468;13.560;2023-11-21T03:05:06;14.20;99.90
63317;DHT22;49822;41.468;13.560;2023-11-21T03:07:32;14.10;99.40
63317;DHT22;49822;41.468;13.560;2023-11-21T03:09:58;14.00;99.50
63317;DHT22;49822;41.468;13.560;2023-11-21T03:12:24;14.00;99.30
63317;DHT22;49822;41.468;13.560;2023-11-21T03:14:51;13.80;99.80
63317;DHT22;49822;41.468;13.560;2023-11-21T03:17:17;13.80;99.90
63317;DHT22;49822;41.468;13.560;2023-11-21T03:19:43;14.00;99.90
63317;DHT22;49822;41.468;13.560;2023-11-21T03:22:09;13.90;99.90
63317;DHT22;49822;41.468;13.560;2023-11-21T03:24:38;13.90;99.90
63317;DHT22;49822;41.468;13.560;2023-11-21T03:27:05;13.90;99.90
63317;DHT22;49822;41.468;13.560;2023-11-21T03:29:31;13.90;99.90
63317;DHT22;49822;41.468;13.560;2023-11-21T03:31:57;14.00;99.90
63317;DHT22;49822;41.468;13.560;2023-11-21T03:34:25;13.90;99.90
63317;DHT22;49822;41.468;13.560;2023-11-21T03:36:55;14.00;99.90
63317;DHT22;49822;41.468;13.560;2023-11-21T03:39:21;13.90;99.50
63317;DHT22;49822;41.468;13.560;2023-11-21T03:41:48;13.90;99.70
63317;DHT22;49822;41.468;13.560;2023-11-21T03:44:15;13.70;99.20
63317;DHT22;49822;41.468;13.560;2023-11-21T03:46:41;13.60;99.10
63317;DHT22;49822;41.468;13.560;2023-11-21T03:49:10;13.70;99.20
63317;DHT22;49822;41.468;13.560;2023-11-21T03:51:37;13.60;99.90
63317;DHT22;49822;41.468;13.560;2023-11-21T03:54:04;13.60;99.90
63317;DHT22;49822;41.468;13.560;2023-11-21T03:56:30;13.60;99.90
63317;DHT22;49822;41.468;13.560;2023-11-21T03:58:56;13.60;99.90
63317;DHT22;49822;41.468;13.560;2023-11-21T04:01:23;13.60;99.90
63317;DHT22;49822;41.468;13.560;2023-11-21T04:03:50;13.60;99.90
63317;DHT22;49822;41.468;13.560;2023-11-21T04:06:17;13.60;99.90
63317;DHT22;49822;41.468;13.560;2023-11-21T04:08:44;13.70;99.90
63317;DHT22;49822;41.468;13.560;2023-11-21T04:11:12;13.50;99.90
63317;DHT22;49822;41.468;13.560;2023-11-21T04:13:39;13.60;99.90
63317;DHT22;49822;41.468;13.560;2023-11-21T04:16:09;13.60;99.90
63317;DHT22;49822;41.468;13.560;2023-11-21T04:18:36;13.10;97.70
63317;DHT22;49822;41.468;13.560;2023-11-21T04:21:07;13.00;99.40
63317;DHT22;49822;41.468;13.560;2023-11-21T04:23:34;13.00;99.90
63317;DHT22;49822;41.468;13.560;2023-11-21T04:26:01;13.10;99.90
63317;DHT22;49822;41.468;13.560;2023-11-21T04:28:28;13.10;99.90
63317;DHT22;49822;41.468;13.560;2023-11-21T04:30:56;13.20;99.90
63317;DHT22;49822;41.468;13.560;2023-11-21T04:33:22;13.10;99.90
63317;DHT22;49822;41.468;13.560;2023-11-21T04:35:48;13.10;99.90
63317;DHT22;49822;41.468;13.560;2023-11-21T04:38:14;13.20;99.90
63317;DHT22;49822;41.468;13.560;2023-11-21T04:40:40;13.10;99.90
63317;DHT22;49822;41.468;13.560;2023-11-21T04:43:06;13.10;99.90
63317;DHT22;49822;41.468;13.560;2023-11-21T04:45:33;13.20;99.90
63317;DHT22;49822;41.468;13.560;2023-11-21T04:48:00;13.20;99.90
63317;DHT22;49822;41.468;13.560;2023-11-21T04:50:26;13.30;99.90
63317;DHT22;49822;41.468;13.560;2023-11-21T04:52:55;13.40;99.90
63317;DHT22;49822;41.468;13.560;2023-11-21T04:55:21;13.40;99.90
63317;DHT22;49822;41.468;13.560;2023-11-21T04:57:47;13.50;99.90
63317;DHT22;49822;41.468;13.560;2023-11-21T05:00:14;13.40;99.90
63317;DHT22;49822;41.468;13.560;2023-11-21T05:02:41;13.30;99.90
63317;DHT22;49822;41.468;13.560;2023-11-21T05:05:07;13.20;99.90
63317;DHT22;49822;41.468;13.560;2023-11-21T05:07:36;13.20;99.90
63317;DHT22;49822;41.468;13.560;2023-11-21T05:10:05;13.40;99.90
63317;DHT22;49822;41.468;13.560;2023-11-21T05:12:36;13.30;99.90
63317;DHT22;49822;41.468;13.560;2023-11-21T05:15:06;13.30;99.90
63317;DHT22;49822;41.468;13.560;2023-11-21T05:17:39;13.20;99.90
63317;DHT22;49822;41.468;13.560;2023-11-21T05:20:09;13.30;99.90
63317;DHT22;49822;41.468;13.560;2023-11-21T05:22:37;13.30;99.90
63317;DHT22;49822;41.468;13.560;2023-11-21T05:25:04;13.30;99.90
63317;DHT22;49822;41.468;13.560;2023-11-21T05:27:31;13.30;99.90
63317;DHT22;49822;41.468;13.560;2023-11-21T05:29:58;13.50;99.90
63317;DHT22;49822;41.468;13.560;2023-11-21T05:32:25;13.40;99.90
63317;DHT22;49822;41.468;13.560;2023-11-21T05:34:52;13.40;99.90
63317;DHT22;49822;41.468;13.560;2023-11-21T05:37:18;13.30;99.40
63317;DHT22;49822;41.468;13.560;2023-11-21T05:39:45;13.30;99.40
63317;DHT22;49822;41.468;13.560;2023-11-21T05:42:12;13.40;99.70
63317;DHT22;49822;41.468;13.560;2023-11-21T05:44:42;13.40;99.90
63317;DHT22;49822;41.468;13.560;2023-11-21T05:47:13;13.40;99.90
63317;DHT22;49822;41.468;13.560;2023-11-21T05:49:39;13.50;99.70
63317;DHT22;49822;41.468;13.560;2023-11-21T05:52:05;13.30;99.80
63317;DHT22;49822;41.468;13.560;2023-11-21T05:54:35;13.50;99.90
63317;DHT22;49822;41.468;13.560;2023-11-21T05:57:01;13.40;99.90
63317;DHT22;49822;41.468;13.560;2023-11-21T05:59:27;13.40;99.90
63317;DHT22;49822;41.468;13.560;2023-11-21T06:01:53;13.30;99.90
63317;DHT22;49822;41.468;13.560;2023-11-21T06:04:20;13.40;99.90
63317;DHT22;49822;41.468;13.560;2023-11-21T06:06:51;13.40;99.90
63317;DHT22;49822;41.468;13.560;2023-11-21T06:09:18;13.60;99.90
63317;DHT22;49822;41.468;13.560;2023-11-21T06:11:45;13.60;99.90
63317;DHT22;49822;41.468;13.560;2023-11-21T06:14:11;13.50;99.90
63317;DHT22;49822;41.468;13.560;2023-11-21T06:16:37;13.50;99.90
63317;DHT22;49822;41.468;13.560;2023-11-21T06:19:03;13.50;99.80
63317;DHT22;49822;41.468;13.560;2023-11-21T06:21:30;13.50;99.80
63317;DHT22;49822;41.468;13.560;2023-11-21T06:23:57;13.40;99.70
63317;DHT22;49822;41.468;13.560;2023-11-21T06:26:23;13.50;99.30
63317;DHT22;49822;41.468;13.560;2023-11-21T06:28:50;13.40;99.30
63317;DHT22;49822;41.468;13.560;2023-11-21T06:31:17;13.50;99.40
63317;DHT22;49822;41.468;13.560;2023-11-21T06:33:44;13.50;99.10
63317;DHT22;49822;41.468;13.560;2023-11-21T06:36:10;13.50;99.30
63317;DHT22;49822;41.468;13.560;2023-11-21T06:38:39;13.50;99.20
63317;DHT22;49822;41.468;13.560;2023-11-21T06:41:06;13.50;99.40
63317;DHT22;49822;41.468;13.560;2023-11-21T06:43:33;13.50;99.80
63317;DHT22;49822;41.468;13.560;2023-11-21T06:45:59;13.60;99.90
63317;DHT22;49822;41.468;13.560;2023-11-21T06:48:25;13.60;99.90
63317;DHT22;49822;41.468;13.560;2023-11-21T06:50:51;13.60;99.90
63317;DHT22;49822;41.468;13.560;2023-11-21T06:53:18;13.60;99.90
63317;DHT22;49822;41.468;13.560;2023-11-21T06:55:45;13.80;99.90
63317;DHT22;49822;41.468;13.560;2023-11-21T06:58:11;13.80;99.90
63317;DHT22;49822;41.468;13.560;2023-11-21T07:00:38;13.80;99.90
63317;DHT22;49822;41.468;13.560;2023-11-21T07:03:07;13.90;99.90
63317;DHT22;49822;41.468;13.560;2023-11-21T07:05:34;13.90;99.90
63317;DHT22;49822;41.468;13.560;2023-11-21T07:08:00;14.00;99.90
63317;DHT22;49822;41.468;13.560;2023-11-21T07:10:30;14.00;99.90
63317;DHT22;49822;41.468;13.560;2023-11-21T07:12:57;14.10;99.80
63317;DHT22;49822;41.468;13.560;2023-11-21T07:15:23;14.10;99.80
63317;DHT22;49822;41.468;13.560;2023-11-21T07:17:50;14.10;99.70
63317;DHT22;49822;41.468;13.560;2023-11-21T07:20:17;14.20;99.90
63317;DHT22;49822;41.468;13.560;2023-11-21T07:22:43;14.30;99.80
63317;DHT22;49822;41.468;13.560;2023-11-21T07:25:10;14.30;99.60
63317;DHT22;49822;41.468;13.560;2023-11-21T07:27:36;14.40;99.70
63317;DHT22;49822;41.468;13.560;2023-11-21T07:30:03;14.50;99.80
63317;DHT22;49822;41.468;13.560;2023-11-21T07:32:31;14.50;99.90
63317;DHT22;49822;41.468;13.560;2023-11-21T07:34:58;14.50;99.90
63317;DHT22;49822;41.468;13.560;2023-11-21T07:37:25;14.50;99.90
63317;DHT22;49822;41.468;13.560;2023-11-21T07:39:54;14.60;99.90
63317;DHT22;49822;41.468;13.560;2023-11-21T07:42:23;14.70;99.90
63317;DHT22;49822;41.468;13.560;2023-11-21T07:44:52;14.70;99.90
63317;DHT22;49822;41.468;13.560;2023-11-21T07:47:18;14.80;99.90
63317;DHT22;49822;41.468;13.560;2023-11-21T07:49:44;14.70;99.90
63317;DHT22;49822;41.468;13.560;2023-11-21T07:52:13;14.80;99.90
63317;DHT22;49822;41.468;13.560;2023-11-21T07:54:42;14.80;99.90
63317;DHT22;49822;41.468;13.560;2023-11-21T07:57:08;14.90;99.90
63317;DHT22;49822;41.468;13.560;2023-11-21T07:59:34;14.90;99.90
63317;DHT22;49822;41.468;13.560;2023-11-21T08:02:00;15.00;99.90
63317;DHT22;49822;41.468;13.560;2023-11-21T08:04:26;15.00;99.90
63317;DHT22;49822;41.468;13.560;2023-11-21T08:06:52;15.00;99.90
63317;DHT22;49822;41.468;13.560;2023-11-21T08:09:19;15.10;99.90
63317;DHT22;49822;41.468;13.560;2023-11-21T08:11:45;15.00;99.90
63317;DHT22;49822;41.468;13.560;2023-11-21T08:14:12;15.10;99.90
63317;DHT22;49822;41.468;13.560;2023-11-21T08:16:39;15.20;99.90
63317;DHT22;49822;41.468;13.560;2023-11-21T08:19:04;15.20;99.90
63317;DHT22;49822;41.468;13.560;2023-11-21T08:21:32;15.40;99.90
63317;DHT22;49822;41.468;13.560;2023-11-21T08:23:58;15.50;99.90
63317;DHT22;49822;41.468;13.560;2023-11-21T08:26:25;15.60;99.90
63317;DHT22;49822;41.468;13.560;2023-11-21T08:28:51;15.70;99.90
63317;DHT22;49822;41.468;13.560;2023-11-21T08:31:28;15.70;99.70
63317;DHT22;49822;41.468;13.560;2023-11-21T08:33:55;15.90;99.80
63317;DHT22;49822;41.468;13.560;2023-11-21T08:36:25;16.00;99.70
63317;DHT22;49822;41.468;13.560;2023-11-21T08:38:51;16.10;99.40
63317;DHT22;49822;41.468;13.560;2023-11-21T08:41:21;16.20;99.10
63317;DHT22;49822;41.468;13.560;2023-11-21T08:43:53;16.20;98.70
63317;DHT22;49822;41.468;13.560;2023-11-21T08:46:20;16.40;98.60
63317;DHT22;49822;41.468;13.560;2023-11-21T08:48:47;16.30;98.70
63317;DHT22;49822;41.468;13.560;2023-11-21T08:51:13;16.40;98.80
63317;DHT22;49822;41.468;13.560;2023-11-21T08:53:40;16.50;98.80
63317;DHT22;49822;41.468;13.560;2023-11-21T08:56:07;16.60;98.50
63317;DHT22;49822;41.468;13.560;2023-11-21T08:58:36;16.60;98.20
63317;DHT22;49822;41.468;13.560;2023-11-21T09:01:03;16.60;98.20
63317;DHT22;49822;41.468;13.560;2023-11-21T09:03:29;16.70;98.00
63317;DHT22;49822;41.468;13.560;2023-11-21T09:05:57;16.60;97.60
63317;DHT22;49822;41.468;13.560;2023-11-21T09:08:24;16.80;97.70
63317;DHT22;49822;41.468;13.560;2023-11-21T09:10:50;16.80;97.60
63317;DHT22;49822;41.468;13.560;2023-11-21T09:13:17;16.90;97.60
63317;DHT22;49822;41.468;13.560;2023-11-21T09:15:45;17.00;97.40
63317;DHT22;49822;41.468;13.560;2023-11-21T09:18:16;17.20;96.90
63317;DHT22;49822;41.468;13.560;2023-11-21T09:20:42;17.30;96.80
63317;DHT22;49822;41.468;13.560;2023-11-21T09:23:10;17.50;96.30
63317;DHT22;49822;41.468;13.560;2023-11-21T09:25:36;17.50;96.10
63317;DHT22;49822;41.468;13.560;2023-11-21T09:28:04;17.60;95.80
63317;DHT22;49822;41.468;13.560;2023-11-21T09:30:35;17.60;95.50
63317;DHT22;49822;41.468;13.560;2023-11-21T09:33:03;17.90;95.70
63317;DHT22;49822;41.468;13.560;2023-11-21T09:35:31;18.20;95.00
63317;DHT22;49822;41.468;13.560;2023-11-21T09:37:57;18.50;94.60
63317;DHT22;49822;41.468;13.560;2023-11-21T09:40:23;19.00;94.10
63317;DHT22;49822;41.468;13.560;2023-11-21T09:42:55;19.40;93.20
63317;DHT22;49822;41.468;13.560;2023-11-21T09:45:26;19.90;92.50
63317;DHT22;49822;41.468;13.560;2023-11-21T09:47:55;20.30;91.80
63317;DHT22;49822;41.468;13.560;2023-11-21T09:50:24;20.70;90.30
63317;DHT22;49822;41.468;13.560;2023-11-21T09:53:02;21.00;88.90
63317;DHT22;49822;41.468;13.560;2023-11-21T09:55:34;21.10;87.60
63317;DHT22;49822;41.468;13.560;2023-11-21T09:58:05;21.20;87.40
63317;DHT22;49822;41.468;13.560;2023-11-21T10:00:34;21.10;87.10
63317;DHT22;49822;41.468;13.560;2023-11-21T10:03:01;21.20;86.50
63317;DHT22;49822;41.468;13.560;2023-11-21T10:05:28;21.20;86.90
63317;DHT22;49822;41.468;13.560;2023-11-21T10:07:56;21.30;86.30
63317;DHT22;49822;41.468;13.560;2023-11-21T10:10:25;21.30;86.30
63317;DHT22;49822;41.468;13.560;2023-11-21T10:13:02;21.30;86.20
63317;DHT22;49822;41.468;13.560;2023-11-21T10:15:33;21.30;86.40
63317;DHT22;49822;41.468;13.560;2023-11-21T10:18:02;21.50;86.40
63317;DHT22;49822;41.468;13.560;2023-11-21T10:20:30;21.40;85.50
63317;DHT22;49822;41.468;13.560;2023-11-21T10:22:57;21.40;85.90
63317;DHT22;49822;41.468;13.560;2023-11-21T10:25:24;21.40;86.00
63317;DHT22;49822;41.468;13.560;2023-11-21T10:27:57;21.30;86.10
63317;DHT22;49822;41.468;13.560;2023-11-21T10:30:38;21.00;86.30
63317;DHT22;49822;41.468;13.560;2023-11-21T10:33:08;20.90;86.30
63317;DHT22;49822;41.468;13.560;2023-11-21T10:35:47;20.60;86.90
63317;DHT22;49822;41.468;13.560;2023-11-21T10:38:21;20.30;87.00
63317;DHT22;49822;41.468;13.560;2023-11-21T10:40:49;20.10;87.70
63317;DHT22;49822;41.468;13.560;2023-11-21T10:43:17;20.00;88.10
63317;DHT22;49822;41.468;13.560;2023-11-21T10:45:46;20.00;88.40
63317;DHT22;49822;41.468;13.560;2023-11-21T10:48:15;19.80;88.60
63317;DHT22;49822;41.468;13.560;2023-11-21T10:50:41;19.60;88.60
63317;DHT22;49822;41.468;13.560;2023-11-21T10:53:08;19.70;89.10
63317;DHT22;49822;41.468;13.560;2023-11-21T10:55:35;19.80;89.20
63317;DHT22;49822;41.468;13.560;2023-11-21T10:58:02;20.00;88.60
63317;DHT22;49822;41.468;13.560;2023-11-21T11:00:31;20.10;88.10
63317;DHT22;49822;41.468;13.560;2023-11-21T11:02:58;20.30;88.40
63317;DHT22;49822;41.468;13.560;2023-11-21T11:05:27;20.50;88.40
63317;DHT22;49822;41.468;13.560;2023-11-21T11:08:08;20.60;88.20
63317;DHT22;49822;41.468;13.560;2023-11-21T11:10:37;20.80;88.00
63317;DHT22;49822;41.468;13.560;2023-11-21T11:13:04;21.00;87.40
63317;DHT22;49822;41.468;13.560;2023-11-21T11:15:32;21.30;86.80
63317;DHT22;49822;41.468;13.560;2023-11-21T11:17:59;21.40;86.30
63317;DHT22;49822;41.468;13.560;2023-11-21T11:20:36;21.50;86.30
63317;DHT22;49822;41.468;13.560;2023-11-21T11:34:41;21.00;85.90
63317;DHT22;49822;41.468;13.560;2023-11-21T11:37:09;20.80;87.00
63317;DHT22;49822;41.468;13.560;2023-11-21T11:39:37;20.70;87.50
63317;DHT22;49822;41.468;13.560;2023-11-21T11:42:08;20.50;87.60
63317;DHT22;49822;41.468;13.560;2023-11-21T11:47:31;20.30;88.60
63317;DHT22;49822;41.468;13.560;2023-11-21T11:50:04;20.20;88.40
63317;DHT22;49822;41.468;13.560;2023-11-21T11:52:47;20.10;88.70
63317;DHT22;49822;41.468;13.560;2023-11-21T11:55:15;20.00;89.20
63317;DHT22;49822;41.468;13.560;2023-11-21T11:57:49;20.00;89.40
63317;DHT22;49822;41.468;13.560;2023-11-21T12:00:21;20.00;89.50
63317;DHT22;49822;41.468;13.560;2023-11-21T12:02:52;19.90;89.00
63317;DHT22;49822;41.468;13.560;2023-11-21T12:05:20;19.90;89.40
63317;DHT22;49822;41.468;13.560;2023-11-21T12:07:57;19.90;89.10
63317;DHT22;49822;41.468;13.560;2023-11-21T12:10:28;20.10;89.30
63317;DHT22;49822;41.468;13.560;2023-11-21T12:13:11;20.20;89.10
63317;DHT22;49822;41.468;13.560;2023-11-21T12:15:43;20.30;88.80
63317;DHT22;49822;41.468;13.560;2023-11-21T12:18:12;20.30;88.60
63317;DHT22;49822;41.468;13.560;2023-11-21T12:20:40;20.40;88.60
63317;DHT22;49822;41.468;13.560;2023-11-21T12:23:07;20.30;88.60
63317;DHT22;49822;41.468;13.560;2023-11-21T12:25:35;20.20;88.60
63317;DHT22;49822;41.468;13.560;2023-11-21T12:28:02;20.10;88.60
63317;DHT22;49822;41.468;13.560;2023-11-21T12:30:30;20.10;88.80
63317;DHT22;49822;41.468;13.560;2023-11-21T12:32:59;20.00;89.00
63317;DHT22;49822;41.468;13.560;2023-11-21T12:35:30;19.90;89.00
63317;DHT22;49822;41.468;13.560;2023-11-21T12:38:00;19.70;89.20
63317;DHT22;49822;41.468;13.560;2023-11-21T12:40:28;19.80;89.50
63317;DHT22;49822;41.468;13.560;2023-11-21T12:43:01;19.70;89.80
63317;DHT22;49822;41.468;13.560;2023-11-21T12:45:30;19.60;89.80
63317;DHT22;49822;41.468;13.560;2023-11-21T12:48:05;19.50;89.80
63317;DHT22;49822;41.468;13.560;2023-11-21T12:50:38;19.40;89.70
63317;DHT22;49822;41.468;13.560;2023-11-21T12:53:09;19.30;90.10
63317;DHT22;49822;41.468;13.560;2023-11-21T12:55:36;19.30;90.30
63317;DHT22;49822;41.468;13.560;2023-11-21T12:58:07;19.10;90.60
63317;DHT22;49822;41.468;13.560;2023-11-21T13:00:40;18.90;91.30
63317;DHT22;49822;41.468;13.560;2023-11-21T13:03:12;18.80;92.30
63317;DHT22;49822;41.468;13.560;2023-11-21T13:05:41;18.70;93.10
63317;DHT22;49822;41.468;13.560;2023-11-21T13:08:12;18.40;93.90
63317;DHT22;49822;41.468;13.560;2023-11-21T13:10:40;18.30;95.00
63317;DHT22;49822;41.468;13.560;2023-11-21T13:13:10;18.10;94.90
63317;DHT22;49822;41.468;13.560;2023-11-21T13:15:53;17.90;92.90
63317;DHT22;49822;41.468;13.560;2023-11-21T13:18:27;17.70;91.50
63317;DHT22;49822;41.468;13.560;2023-11-21T13:20:54;17.70;91.50
63317;DHT22;49822;41.468;13.560;2023-11-21T13:23:21;17.70;92.10
63317;DHT22;49822;41.468;13.560;2023-11-21T13:25:54;17.80;92.60
63317;DHT22;49822;41.468;13.560;2023-11-21T13:28:21;17.90;92.60
63317;DHT22;49822;41.468;13.560;2023-11-21T13:30:50;17.90;92.50
63317;DHT22;49822;41.468;13.560;2023-11-21T13:33:19;18.00;92.50
63317;DHT22;49822;41.468;13.560;2023-11-21T13:35:49;18.00;92.30
63317;DHT22;49822;41.468;13.560;2023-11-21T13:38:19;18.20;92.10
63317;DHT22;49822;41.468;13.560;2023-11-21T13:40:51;18.40;93.00
63317;DHT22;49822;41.468;13.560;2023-11-21T13:43:24;18.40;93.50
63317;DHT22;49822;41.468;13.560;2023-11-21T13:45:54;18.50;93.40
63317;DHT22;49822;41.468;13.560;2023-11-21T13:48:29;18.40;93.80
63317;DHT22;49822;41.468;13.560;2023-11-21T13:51:06;18.10;94.30
63317;DHT22;49822;41.468;13.560;2023-11-21T13:53:44;17.90;94.30
63317;DHT22;49822;41.468;13.560;2023-11-21T13:56:14;17.80;94.40
63317;DHT22;49822;41.468;13.560;2023-11-21T13:58:48;17.90;94.20
63317;DHT22;49822;41.468;13.560;2023-11-21T14:01:26;17.80;94.60
63317;DHT22;49822;41.468;13.560;2023-11-21T14:04:05;17.70;94.80
63317;DHT22;49822;41.468;13.560;2023-11-21T14:06:45;17.90;95.40
63317;DHT22;49822;41.468;13.560;2023-11-21T14:09:15;18.10;95.30
63317;DHT22;49822;41.468;13.560;2023-11-21T14:11:54;19.10;95.40
63317;DHT22;49822;41.468;13.560;2023-11-21T14:14:24;20.20;93.20
63317;DHT22;49822;41.468;13.560;2023-11-21T14:16:53;20.40;91.60
63317;DHT22;49822;41.468;13.560;2023-11-21T14:19:24;20.50;90.40
63317;DHT22;49822;41.468;13.560;2023-11-21T14:21:58;20.40;89.80
63317;DHT22;49822;41.468;13.560;2023-11-21T14:24:24;20.30;89.70
63317;DHT22;49822;41.468;13.560;2023-11-21T14:26:52;20.10;90.10
63317;DHT22;49822;41.468;13.560;2023-11-21T14:29:19;19.90;90.30
63317;DHT22;49822;41.468;13.560;2023-11-21T14:31:51;19.50;90.10
63317;DHT22;49822;41.468;13.560;2023-11-21T14:34:20;19.00;91.60
63317;DHT22;49822;41.468;13.560;2023-11-21T14:36:47;18.60;92.20
63317;DHT22;49822;41.468;13.560;2023-11-21T14:39:14;18.30;92.50
63317;DHT22;49822;41.468;13.560;2023-11-21T14:41:55;18.20;92.90
63317;DHT22;49822;41.468;13.560;2023-11-21T14:44:26;18.10;92.90
63317;DHT22;49822;41.468;13.560;2023-11-21T14:46:54;18.20;93.30
63317;DHT22;49822;41.468;13.560;2023-11-21T14:49:22;18.10;93.90
63317;DHT22;49822;41.468;13.560;2023-11-21T14:51:52;18.20;93.40
63317;DHT22;49822;41.468;13.560;2023-11-21T14:54:47;18.20;94.00
63317;DHT22;49822;41.468;13.560;2023-11-21T14:57:23;18.20;94.50
63317;DHT22;49822;41.468;13.560;2023-11-21T14:59:49;18.10;95.40
63317;DHT22;49822;41.468;13.560;2023-11-21T15:02:24;18.10;95.60
63317;DHT22;49822;41.468;13.560;2023-11-21T15:05:09;18.00;95.20
63317;DHT22;49822;41.468;13.560;2023-11-21T15:07:41;17.90;95.30
63317;DHT22;49822;41.468;13.560;2023-11-21T15:10:07;17.90;94.90
63317;DHT22;49822;41.468;13.560;2023-11-21T15:12:41;17.80;95.30
63317;DHT22;49822;41.468;13.560;2023-11-21T15:15:09;17.70;95.40
63317;DHT22;49822;41.468;13.560;2023-11-21T15:17:37;17.70;95.40
63317;DHT22;49822;41.468;13.560;2023-11-21T15:20:05;17.70;95.60
63317;DHT22;49822;41.468;13.560;2023-11-21T15:22:32;17.70;95.70
63317;DHT22;49822;41.468;13.560;2023-11-21T15:24:58;17.60;96.00
63317;DHT22;49822;41.468;13.560;2023-11-21T15:27:27;17.50;96.00
63317;DHT22;49822;41.468;13.560;2023-11-21T15:29:53;17.40;96.10
63317;DHT22;49822;41.468;13.560;2023-11-21T15:32:19;17.30;96.80
63317;DHT22;49822;41.468;13.560;2023-11-21T15:34:45;17.20;96.80
63317;DHT22;49822;41.468;13.560;2023-11-21T15:37:12;17.10;96.80
63317;DHT22;49822;41.468;13.560;2023-11-21T15:39:40;17.10;96.70